Latest Weather Observations for Gabo Island

IDV60801

Issued at 5:02 pm EDT Sunday 21 December 2014 (issued every 30 minutes, with the page automatically refreshed every 10 minutes)

About weather observations | Map of weather stations | Latest weather observations for VIC | Other Formats
Station Details ID: 084016 Name: GABO ISLAND LIGHTHOUSE Lat: -37.57 Lon: 149.92 Height: 15.2 m
Data from the previous 72 hours. | See also: Recent months at Gabo Island
Date/Time
EDT
Temp
°C
App
Temp
°C
Dew
Point
Rel
Hum
%
Delta-T
°C
Wind Press
QNH
hPa
Press
MSL
hPa
Rain
since 9 am
mm
Dir
 
Spd
km/h
Gust
km/h
Spd
kts
Gust
kts
21/05:00pm 21.3 16.2 16.9 76 2.7 NNE 39 44 21 24 1014.1 - 0.0
21/04:30pm 21.6 16.5 16.8 74 2.9 NNE 39 48 21 26 1014.2 - 0.0
21/04:00pm 21.8 15.7 16.7 73 3.1 NNE 44 50 24 27 1014.2 - 0.0
21/03:30pm 21.6 15.6 16.8 74 2.9 NNE 44 52 24 28 1014.4 - 0.0
21/03:00pm 21.6 16.5 16.8 74 2.9 NE 39 48 21 26 1014.7 1014.8 0.0
21/02:30pm 21.8 16.1 16.3 71 3.3 NNE 41 48 22 26 1014.8 - 0.0
21/02:00pm 21.5 15.9 16.6 73 3.0 NNE 41 50 22 27 1014.9 - 0.0
21/01:30pm 21.5 15.5 16.4 72 3.1 NNE 43 52 23 28 1015.1 - 0.0
21/01:00pm 21.3 16.1 16.5 74 2.9 NE 39 46 21 25 1015.3 - 0.0
21/12:30pm 21.0 16.2 16.7 76 2.6 NE 37 44 20 24 1015.7 - 0.0
21/12:00pm 21.1 16.6 16.5 75 2.8 NE 35 43 19 23 1015.9 1015.9 0.0
21/11:30am 19.9 14.8 15.9 78 2.4 NE 37 44 20 24 1016.1 - 0.0
21/11:00am 20.5 15.3 15.6 73 2.9 NE 37 44 20 24 1015.8 - 0.0
21/10:30am 21.1 15.8 15.4 70 3.4 NE 37 44 20 24 1016.0 - 0.0
21/10:00am 20.5 16.3 15.6 73 2.9 NE 32 35 17 19 1016.3 - 0.0
21/09:30am 19.7 16.0 14.9 74 2.8 NE 28 33 15 18 1016.5 - 0.0
21/09:00am 20.5 17.8 14.5 68 3.5 NNE 22 28 12 15 1016.8 1016.8 0.0
21/08:30am 19.6 16.1 14.4 72 3.0 NNE 26 32 14 17 1016.6 - 0.0
21/08:00am 18.4 17.0 14.6 78 2.2 NNE 15 26 8 14 1016.5 - 0.0
21/07:30am 16.5 16.4 13.3 81 1.8 NE 6 9 3 5 1016.5 - 0.0
21/07:00am 16.1 16.3 13.2 83 1.6 N 4 9 2 5 1016.5 - 0.0
21/06:30am 14.8 15.7 13.0 89 1.0 CALM 0 4 0 2 1016.4 - 0.0
21/06:00am 13.8 13.5 11.5 86 1.2 NNE 4 7 2 4 1016.1 1016.1 0.0
21/05:30am 13.7 14.1 11.2 85 1.3 CALM 0 0 0 0 1016.1 - 0.0
21/05:00am 13.6 12.4 11.7 88 1.0 WNW 9 11 5 6 1016.2 - 0.0
21/04:30am 13.6 12.1 11.9 89 0.9 WNW 11 13 6 7 1016.3 - 0.0
21/04:00am 13.7 11.8 11.8 88 1.0 WNW 13 15 7 8 1016.5 - 0.0
21/03:30am 14.1 12.7 12.1 88 1.1 WNW 11 13 6 7 1016.7 - 0.0
21/03:00am 14.7 13.5 11.7 82 1.6 WNW 9 11 5 6 1017.0 1017.0 0.0
21/02:30am 15.2 14.3 11.5 78 2.0 WNW 7 9 4 5 1017.1 - 0.0
21/02:00am 14.4 13.0 10.8 79 1.9 N 9 11 5 6 1017.3 - 0.0
21/01:30am 14.5 13.8 11.5 82 1.6 N 6 7 3 4 1017.5 - 0.0
21/01:00am 15.1 14.3 11.0 76 2.2 N 6 7 3 4 1017.8 - 0.0
21/12:30am 15.0 13.6 11.0 77 2.1 N 9 9 5 5 1018.0 - 0.0
21/12:00am 15.5 14.8 11.4 76 2.2 NNW 6 7 3 4 1018.1 1018.2 0.0
 
Date/Time
EDT
Temp
°C
App
Temp
°C
Dew
Point
Rel
Hum
%
Delta-T
°C
Wind Press
QNH
hPa
Press
MSL
hPa
Rain
since 9 am
mm
Dir
 
Spd
km/h
Gust
km/h
Spd
kts
Gust
kts
20/11:30pm 15.3 14.4 10.8 74 2.4 N 6 9 3 5 1018.3 - 0.0
20/11:00pm 15.6 14.9 11.5 76 2.2 N 6 6 3 3 1018.5 - 0.0
20/10:30pm 15.0 14.3 12.0 82 1.6 N 7 11 4 6 1018.5 - 0.0
20/10:00pm 15.4 14.9 12.1 81 1.8 NW 6 7 3 4 1018.5 - 0.0
20/09:30pm 17.0 16.1 12.7 76 2.4 SW 9 13 5 7 1018.4 - 0.0
20/09:00pm 17.5 14.8 12.8 74 2.6 SW 19 20 10 11 1018.0 1018.0 0.0
20/08:30pm 17.5 13.6 12.2 71 2.9 SSW 24 28 13 15 1017.6 - 0.0
20/08:00pm 17.9 13.7 12.3 70 3.1 SSW 26 32 14 17 1017.4 - 0.0
20/07:30pm 17.7 13.1 12.3 70 3.0 SSW 28 33 15 18 1017.1 - 0.0
20/07:00pm 17.9 12.9 12.1 69 3.2 SSW 30 35 16 19 1016.8 - 0.0
20/06:30pm 17.8 12.2 11.4 66 3.5 SSW 32 37 17 20 1016.6 - 0.0
20/06:00pm 17.8 12.1 11.8 68 3.3 SSW 33 39 18 21 1016.4 1016.5 0.0
20/05:30pm 17.8 11.0 10.7 63 3.8 SSW 37 41 20 22 1016.4 - 0.0
20/05:00pm 17.6 10.9 11.1 65 3.5 SSW 37 44 20 24 1016.4 - 0.0
20/04:30pm 17.5 9.7 11.2 66 3.4 SSW 43 50 23 27 1016.4 - 0.0
20/04:00pm 17.7 9.4 11.4 66 3.4 SSW 46 54 25 29 1016.5 - 0.0
20/03:30pm 17.6 9.4 10.5 63 3.8 SSW 44 52 24 28 1016.8 - 0.0
20/03:00pm 17.9 9.5 11.1 64 3.7 SSW 46 52 25 28 1016.8 1016.7 0.0
20/02:30pm 18.1 9.8 11.3 64 3.7 SSW 46 54 25 29 1016.7 - 0.0
20/02:00pm 17.6 8.9 10.0 61 4.0 SSW 46 54 25 29 1016.8 - 0.0
20/01:30pm 17.5 9.1 9.0 57 4.4 SSW 43 50 23 27 1017.1 - 0.0
20/01:00pm 17.8 10.1 8.5 54 4.8 SSW 39 44 21 24 1017.3 - 0.0
20/12:30pm 17.9 9.8 8.6 54 4.8 SW 41 46 22 25 1017.6 - 0.0
20/12:00pm 17.7 11.1 8.6 55 4.7 SSW 33 39 18 21 1017.7 1017.7 0.0
20/11:30am 18.0 12.5 9.2 56 4.6 SSW 28 32 15 17 1017.7 - 0.0
20/11:00am 19.8 15.8 8.9 49 5.7 WSW 20 26 11 14 1017.8 - 0.0
20/10:30am 19.2 14.9 7.9 48 5.8 W 20 28 11 15 1017.6 - 0.0
20/10:00am 18.7 14.1 8.2 50 5.4 W 22 26 12 14 1017.7 - 0.0
20/09:30am 17.8 13.5 8.0 52 5.0 W 20 26 11 14 1017.9 - 0.0
20/09:00am 17.2 12.6 8.1 55 4.6 W 22 28 12 15 1018.0 1018.1 0.0
20/08:30am 16.2 11.7 8.5 60 3.9 W 22 28 12 15 1017.9 - 0.0
20/08:00am 15.6 11.0 8.3 62 3.7 W 22 28 12 15 1017.6 - 0.0
20/07:30am 14.3 10.2 8.5 68 2.9 WNW 20 30 11 16 1017.6 - 0.0
20/07:00am 13.9 9.8 8.7 71 2.6 WNW 20 32 11 17 1017.2 - 0.0
20/06:30am 13.5 9.2 9.2 75 2.2 WNW 22 30 12 16 1017.0 - 0.0
20/06:00am 13.5 10.0 8.7 73 2.4 WNW 17 22 9 12 1016.9 1016.9 0.0
20/05:30am 13.8 10.8 9.1 73 2.4 WNW 15 20 8 11 1016.8 - 0.0
20/05:00am 13.7 10.2 8.9 73 2.4 WNW 17 22 9 12 1016.8 - 0.0
20/04:30am 14.0 10.6 9.1 72 2.5 WNW 17 24 9 13 1016.7 - 0.0
20/04:00am 13.9 10.1 9.2 73 2.4 WNW 19 24 10 13 1016.6 - 0.0
20/03:30am 13.7 10.4 9.6 76 2.1 WNW 17 24 9 13 1016.8 - 0.0
20/03:00am 13.8 9.8 8.4 70 2.7 WNW 19 24 10 13 1017.0 1017.0 0.0
20/02:30am 13.4 9.7 9.3 76 2.1 WNW 19 26 10 14 1017.0 - 0.0
20/02:00am 13.6 9.9 9.3 75 2.2 WNW 19 26 10 14 1017.2 - 0.0
20/01:30am 13.5 10.2 9.4 76 2.1 WNW 17 24 9 13 1017.4 - 0.0
20/01:00am 13.7 10.0 9.4 75 2.2 WNW 19 26 10 14 1017.6 - 0.0
20/12:30am 14.5 10.3 9.6 72 2.5 W 22 28 12 15 1017.7 - 0.0
20/12:00am 14.8 10.5 9.3 69 2.8 W 22 30 12 16 1017.9 1017.9 0.0
 
Date/Time
EDT
Temp
°C
App
Temp
°C
Dew
Point
Rel
Hum
%
Delta-T
°C
Wind Press
QNH
hPa
Press
MSL
hPa
Rain
since 9 am
mm
Dir
 
Spd
km/h
Gust
km/h
Spd
kts
Gust
kts
19/11:30pm 15.4 10.8 9.8 69 2.9 W 24 32 13 17 1018.0 - 0.0
19/11:00pm 15.6 10.1 9.2 65 3.3 W 28 44 15 24 1018.1 - 0.0
19/10:58pm 15.6 10.1 9.2 65 3.3 W 28 44 15 24 1018.1 - 0.0
19/10:30pm 16.3 9.1 9.1 62 3.7 SW 37 44 20 24 1018.0 - 0.0
19/10:00pm 16.2 8.1 8.8 61 3.8 SW 41 46 22 25 1017.9 - 0.0
19/09:30pm 16.4 8.4 9.0 61 3.8 SW 41 48 22 26 1017.8 - 0.0
19/09:00pm 16.4 7.7 8.3 58 4.1 SW 44 54 24 29 1017.5 1017.4 0.0
19/08:30pm 16.5 8.1 8.9 61 3.9 SW 43 52 23 28 1017.3 - 0.0
19/08:00pm 16.7 8.2 9.2 61 3.9 SW 44 52 24 28 1017.2 - 0.0
19/07:30pm 16.7 8.1 8.9 60 4.0 SW 44 54 24 29 1016.8 - 0.0
19/07:00pm 16.8 7.1 7.4 54 4.7 SW 48 57 26 31 1016.4 - 0.0
19/06:30pm 17.0 7.4 8.1 55 4.5 SW 48 59 26 32 1016.0 - 0.0
19/06:00pm 16.9 7.5 8.7 58 4.2 SW 48 56 26 30 1015.6 1015.5 0.0
19/05:30pm 17.1 7.1 7.8 54 4.7 SW 50 57 27 31 1015.2 - 0.0
19/05:00pm 17.0 7.1 8.1 55 4.5 SW 50 57 27 31 1015.1 - 0.0
19/04:30pm 17.4 6.4 8.4 55 4.6 SW 56 63 30 34 1015.0 - 0.0
19/04:00pm 17.4 6.7 8.2 54 4.7 SW 54 63 29 34 1014.9 - 0.0
19/03:30pm 17.9 7.5 9.1 56 4.6 SW 54 63 29 34 1014.8 - 0.0
19/03:00pm 17.7 7.3 9.3 58 4.4 SW 54 63 29 34 1014.5 1014.4 0.0
19/02:30pm 17.3 7.6 9.0 58 4.3 SW 50 63 27 34 1014.3 - 0.0
19/02:00pm 17.7 7.7 7.9 52 5.0 SW 50 63 27 34 1014.3 - 0.0
19/01:30pm 17.0 5.4 8.4 57 4.4 SW 59 72 32 39 1014.1 - 0.0
19/01:00pm 17.1 5.2 8.5 57 4.4 SW 61 70 33 38 1014.0 - 0.0
19/12:30pm 17.5 6.9 8.3 54 4.7 SW 54 65 29 35 1013.8 - 0.0
19/12:00pm 17.2 7.0 8.4 56 4.5 SW 52 61 28 33 1013.6 1013.5 0.0
19/11:30am 16.9 8.6 10.1 64 3.6 SW 44 57 24 31 1013.4 - 0.0
19/11:13am 15.1 6.2 10.5 74 2.4 SW 48 70 26 38 1013.6 - 0.0
19/11:00am 15.6 3.2 10.9 73 2.5 SW 67 78 36 42 1013.3 - 0.0
19/10:57am 16.0 3.8 10.5 70 2.9 SW 65 74 35 40 1013.2 - 0.0
19/10:55am 16.8 9.1 10.0 64 3.6 WSW 41 69 22 37 1013.3 - 0.0
19/10:33am 16.6 9.1 11.0 69 3.0 WSW 41 46 22 25 1013.4 - 0.0
19/10:30am 16.4 10.7 11.2 71 2.8 SW 32 39 17 21 1013.4 - 0.0
19/10:19am 15.2 8.0 10.5 73 2.5 SW 39 57 21 31 1013.4 - 0.0
19/10:00am 17.2 9.5 10.2 63 3.7 WSW 41 54 22 29 1013.3 - 0.0
19/09:30am 16.5 8.8 10.3 67 3.3 WSW 41 54 22 29 1013.1 - 0.0
19/09:00am 16.1 9.1 11.1 72 2.7 W 39 48 21 26 1013.1 1013.1 11.0
19/08:30am 14.7 7.9 10.5 76 2.2 W 37 46 20 25 1012.8 - 11.0
19/08:00am 14.5 8.8 11.3 81 1.7 W 32 39 17 21 1012.6 - 11.0
19/07:30am 14.2 6.8 10.0 76 2.2 W 39 48 21 26 1012.4 - 11.0
19/07:00am 13.7 6.9 10.6 81 1.6 W 37 43 20 23 1011.9 - 11.0
19/06:30am 14.1 7.8 10.9 81 1.7 W 35 44 19 24 1011.4 - 11.0
19/06:00am 14.2 7.2 11.2 82 1.6 WSW 39 50 21 27 1011.0 1011.0 11.0
19/05:30am 14.2 6.7 11.0 81 1.7 WSW 41 50 22 27 1010.6 - 11.0
19/05:00am 14.0 6.4 10.6 80 1.8 W 41 50 22 27 1010.2 - 11.0
19/04:30am 14.0 6.5 10.8 81 1.7 W 41 50 22 27 1009.8 - 11.0
19/04:00am 14.5 6.5 11.1 80 1.8 W 44 57 24 31 1009.7 - 11.0
19/03:30am 14.7 6.8 10.9 78 2.0 WSW 43 56 23 30 1009.5 - 11.0
19/03:00am 14.7 7.8 11.5 81 1.7 W 39 50 21 27 1009.4 1009.3 11.0
19/02:30am 14.8 7.9 10.4 75 2.3 WSW 37 46 20 25 1009.5 - 11.0
19/02:00am 14.4 8.3 11.6 83 1.5 W 35 46 19 25 1009.5 - 11.0
19/01:30am 14.5 8.2 11.1 80 1.8 WSW 35 44 19 24 1009.6 - 11.0
19/01:00am 14.7 8.4 10.9 78 2.0 WSW 35 48 19 26 1009.7 - 11.0
19/12:30am 14.8 8.7 11.6 81 1.7 WSW 35 46 19 25 1009.8 - 11.0
19/12:00am 15.3 6.7 11.8 79 1.9 SW 48 59 26 32 1009.5 1009.5 11.0
 
Date/Time
EDT
Temp
°C
App
Temp
°C
Dew
Point
Rel
Hum
%
Delta-T
°C
Wind Press
QNH
hPa
Press
MSL
hPa
Rain
since 9 am
mm
Dir
 
Spd
km/h
Gust
km/h
Spd
kts
Gust
kts
18/11:30pm 15.7 6.4 12.0 78 2.0 SW 52 61 28 33 1009.7 - 11.0
18/11:00pm 15.1 5.0 12.4 84 1.5 WSW 57 80 31 43 1009.3 - 11.0
18/10:30pm 16.3 5.1 13.5 83 1.6 SW 65 85 35 46 1007.8 - 11.0
18/10:25pm 16.8 6.2 13.2 79 2.0 SSW 61 85 33 46 1008.0 - 11.0
18/10:00pm 17.2 6.6 11.9 71 2.9 SW 59 72 32 39 1009.0 - 11.0
18/09:30pm 17.4 7.2 12.1 71 2.9 SSW 57 69 31 37 1007.7 - 11.0
18/09:22pm 17.8 8.3 13.6 76 2.4 SSW 56 67 30 36 1007.6 - 11.0
18/09:18pm 18.2 13.3 13.8 75 2.5 SW 32 52 17 28 1007.8 - 11.0
18/09:00pm 17.3 15.8 15.2 87 1.2 SSW 17 20 9 11 1007.5 1007.4 11.0
18/08:30pm 18.6 18.7 17.5 93 0.7 S 13 24 7 13 1006.8 - 10.2
18/08:00pm 18.0 17.1 16.8 93 0.7 NE 17 20 9 11 1005.9 - 8.4
18/07:30pm 18.4 16.7 17.1 92 0.8 NNE 22 32 12 17 1005.5 - 8.4
18/07:00pm 19.3 16.5 17.3 88 1.2 NE 28 32 15 17 1005.0 - 8.4
18/06:30pm 18.5 15.7 17.2 92 0.8 NE 28 33 15 18 1004.9 - 8.4
18/06:00pm 18.5 14.9 17.2 92 0.8 NE 32 35 17 19 1004.5 1004.4 8.4
18/05:30pm 18.8 15.6 17.3 91 0.9 NNE 30 39 16 21 1004.5 - 8.4

Other Formats:

Comma delimited format used in spreadsheet applications
http://www.bom.gov.au/fwo/IDV60801/IDV60801.94933.axf

JavaScript Object Notation format (JSON) in row-major order
http://www.bom.gov.au/fwo/IDV60801/IDV60801.94933.json